Time;durP1;ratioP1;P1;durP2;ratioP2;P2;SDS_P1;SDS_P2;PMS_P1;PMS_P2;Temp;Humidity;BMP_temperature;BMP_pressure;BME280_temperature;BME280_humidity;BME280_pressure;Samples;Min_cycle;Max_cycle;Signal;HPM_P1;HPM_P2
2022/08/09 00:01:14;;;;;;;6.83;4.60;;;;;;;16.83;73.16;102618.41;4909318;29;20371;-76
2022/08/09 00:03:40;;;;;;;11.53;4.80;;;;;;;16.81;73.06;102618.50;4895908;29;20324;-76
2022/08/09 00:06:05;;;;;;;6.65;4.82;;;;;;;16.81;73.52;102621.19;4902599;29;20284;-75
2022/08/09 00:08:30;;;;;;;5.93;4.05;;;;;;;16.81;73.33;102617.66;4913495;29;20032;-76
2022/08/09 00:10:57;;;;;;;9.97;4.80;;;;;;;16.81;73.04;102613.16;4902274;29;20024;-75
2022/08/09 00:13:22;;;;;;;6.07;4.50;;;;;;;16.77;73.32;102618.84;4912678;29;20585;-77
2022/08/09 00:15:48;;;;;;;4.57;4.13;;;;;;;16.76;73.35;102618.00;4906925;29;20033;-78
2022/08/09 00:18:13;;;;;;;5.60;4.20;;;;;;;16.72;73.72;102605.81;4907486;29;20773;-78
2022/08/09 00:20:39;;;;;;;6.00;4.60;;;;;;;16.68;72.96;102604.31;4899816;29;20308;-78
2022/08/09 00:23:04;;;;;;;9.88;4.70;;;;;;;16.65;73.58;102607.22;4900577;29;20293;-78
2022/08/09 00:25:29;;;;;;;6.47;4.90;;;;;;;16.58;74.63;102608.66;4900523;29;20028;-78
2022/08/09 00:27:55;;;;;;;6.80;4.20;;;;;;;16.62;73.84;102607.44;4892049;29;20297;-78
2022/08/09 00:30:20;;;;;;;9.63;4.53;;;;;;;16.59;73.83;102603.16;4918670;29;20284;-78
2022/08/09 00:32:45;;;;;;;4.70;4.22;;;;;;;16.59;73.61;102610.38;4907190;29;20754;-78
2022/08/09 00:35:10;;;;;;;7.40;4.37;;;;;;;16.58;74.10;102605.97;4891123;29;20533;-78
2022/08/09 00:37:36;;;;;;;6.05;4.20;;;;;;;16.48;73.99;102594.22;4898110;29;20361;-79
2022/08/09 00:40:01;;;;;;;6.57;4.40;;;;;;;16.51;74.09;102610.94;4900326;29;20115;-79
2022/08/09 00:42:27;;;;;;;6.10;4.13;;;;;;;16.51;74.28;102613.63;4912447;29;20039;-78
2022/08/09 00:44:54;;;;;;;7.88;4.45;;;;;;;16.51;74.23;102608.25;4900270;29;20092;-79
2022/08/09 00:47:20;;;;;;;5.85;4.40;;;;;;;16.46;73.95;102607.72;4900160;29;20038;-78
2022/08/09 00:49:45;;;;;;;7.57;4.30;;;;;;;16.48;73.42;102613.84;4911004;29;20036;-78
2022/08/09 00:52:11;;;;;;;7.63;4.32;;;;;;;16.44;74.17;102615.88;4946515;23;20065;-50
2022/08/09 00:54:36;;;;;;;6.28;4.75;;;;;;;16.46;73.75;102613.09;4906560;29;20108;-47
2022/08/09 00:57:03;;;;;;;6.00;4.05;;;;;;;16.42;74.22;102608.91;4898715;29;20032;-50
2022/08/09 00:59:28;;;;;;;6.50;4.00;;;;;;;16.38;74.10;102610.97;4900107;29;20028;-52
2022/08/09 01:01:54;;;;;;;4.77;3.90;;;;;;;16.36;74.31;102615.59;4904568;29;20035;-51
2022/08/09 01:04:29;;;;;;;7.88;4.40;;;;;;;16.35;74.27;102613.03;4899062;29;20637;-49
2022/08/09 01:07:16;;;;;;;5.90;4.30;;;;;;;16.36;74.28;102604.88;4898930;29;20036;-51
2022/08/09 01:09:52;;;;;;;5.85;3.95;;;;;;;16.36;73.23;102606.69;4898882;29;20067;-50
2022/08/09 01:12:39;;;;;;;8.15;4.38;;;;;;;16.36;73.79;102612.91;4898209;29;20124;-53
2022/08/09 01:15:08;;;;;;;5.47;3.75;;;;;;;16.33;73.96;102610.44;4898850;29;20507;-49
2022/08/09 01:17:42;;;;;;;5.63;4.43;;;;;;;16.33;73.74;102615.81;4899062;29;20056;-49
2022/08/09 01:20:13;;;;;;;6.85;4.40;;;;;;;16.28;74.52;102612.63;4898284;29;20139;-51
2022/08/09 01:23:02;;;;;;;7.35;4.47;;;;;;;16.33;73.51;102606.91;4898372;29;20028;-49
2022/08/09 01:25:54;;;;;;;9.45;4.20;;;;;;;16.33;72.97;102610.44;4903026;29;20032;-51
2022/08/09 01:28:22;;;;;;;5.45;4.10;;;;;;;16.26;74.08;102612.72;4898495;29;20068;-51
2022/08/09 01:30:50;;;;;;;5.85;4.85;;;;;;;16.24;74.03;102616.50;4897958;29;20040;-49
2022/08/09 01:33:18;;;;;;;6.65;4.30;;;;;;;16.21;74.51;102614.03;4897714;29;20036;-51
2022/08/09 01:35:52;;;;;;;6.07;4.30;;;;;;;16.22;74.02;102610.38;4898348;29;20120;-48
2022/08/09 01:38:21;;;;;;;6.00;4.38;;;;;;;16.15;74.56;102609.09;4898540;29;20420;-51
2022/08/09 01:40:55;;;;;;;7.95;4.35;;;;;;;16.15;73.80;102609.94;4898166;29;20036;-50
2022/08/09 01:43:22;;;;;;;6.40;4.40;;;;;;;16.15;74.08;102609.94;4898331;29;20036;-49
2022/08/09 01:45:48;;;;;;;4.68;4.20;;;;;;;16.12;74.51;102609.31;4896885;29;20388;-49
2022/08/09 01:48:16;;;;;;;5.85;4.45;;;;;;;16.10;74.65;102609.44;4896930;29;20418;-51
2022/08/09 01:50:46;;;;;;;6.88;4.75;;;;;;;16.09;74.33;102605.91;4897974;29;20025;-49
2022/08/09 01:53:12;;;;;;;5.40;4.00;;;;;;;16.07;74.60;102606.97;4893084;29;20127;-50
2022/08/09 01:55:39;;;;;;;5.65;3.83;;;;;;;16.04;74.34;102609.91;4895416;29;20016;-49
2022/08/09 01:58:05;;;;;;;8.50;4.00;;;;;;;16.04;74.47;102607.22;4882665;29;20111;-48
2022/08/09 02:00:33;;;;;;;7.55;4.20;;;;;;;15.94;75.14;102620.41;4880646;29;20485;-52
2022/08/09 02:02:59;;;;;;;7.53;4.43;;;;;;;15.93;75.24;102620.53;4879340;29;20481;-48
2022/08/09 02:05:26;;;;;;;8.52;5.03;;;;;;;15.88;75.14;102619.00;4879579;29;20111;-51
2022/08/09 02:08:11;;;;;;;6.20;4.22;;;;;;;15.89;74.29;102626.09;4878658;29;20061;-52
2022/08/09 02:10:41;;;;;;;5.53;3.80;;;;;;;15.84;74.83;102624.72;4879158;29;20478;-51
2022/08/09 02:13:11;;;;;;;8.15;4.40;;;;;;;15.80;75.39;102623.19;4881708;29;20033;-50
2022/08/09 02:15:40;;;;;;;5.30;4.20;;;;;;;15.78;75.35;102625.97;4883048;29;20069;-49
2022/08/09 02:18:06;;;;;;;;;;;;;;;15.90;72.56;102627.81;4883446;29;20076;-47
2022/08/09 02:20:37;;;;;;;5.75;4.00;;;;;;;15.69;75.06;102614.06;4890866;29;19911;-51
2022/08/09 02:23:19;;;;;;;6.63;4.38;;;;;;;15.67;74.98;102618.69;4892806;29;20064;-52
2022/08/09 02:25:47;;;;;;;4.90;4.25;;;;;;;15.62;75.94;102618.16;4880781;29;20488;-50
2022/08/09 02:28:18;;;;;;;5.85;4.15;;;;;;;15.61;75.82;102611.06;4882545;29;20108;-52
2022/08/09 02:30:48;;;;;;;7.18;4.60;;;;;;;15.56;75.86;102609.69;4865251;29;20041;-49
2022/08/09 02:33:23;;;;;;;6.78;4.88;;;;;;;15.58;76.13;102610.44;4889746;29;20076;-50
2022/08/09 02:35:53;;;;;;;4.93;4.25;;;;;;;15.56;75.79;102610.53;4870234;29;20123;-48
2022/08/09 02:38:25;;;;;;;8.38;4.47;;;;;;;15.49;76.11;102609.25;4882822;29;20477;-50
2022/08/09 02:40:54;;;;;;;7.68;4.50;;;;;;;15.48;76.13;102607.53;4881913;29;20033;-51
2022/08/09 02:43:23;;;;;;;6.53;4.30;;;;;;;15.50;76.06;102610.97;4882835;29;20363;-52
2022/08/09 02:45:51;;;;;;;5.30;4.47;;;;;;;15.44;76.59;102600.69;4895794;29;20029;-49
2022/08/09 02:48:18;;;;;;;9.80;4.75;;;;;;;15.41;76.04;102601.75;4892530;29;20036;-50
2022/08/09 02:50:51;;;;;;;8.52;4.97;;;;;;;15.44;76.01;102606.03;4882014;29;20033;-50
2022/08/09 02:53:30;;;;;;;5.10;4.57;;;;;;;15.42;75.94;102605.28;4882574;29;20456;-48
2022/08/09 02:55:58;;;;;;;6.43;4.65;;;;;;;15.34;76.54;102604.00;4882473;29;20405;-47
2022/08/09 02:58:28;;;;;;;7.88;4.85;;;;;;;15.35;76.84;102607.50;4882058;29;20033;-48
2022/08/09 03:00:54;;;;;;;6.65;4.75;;;;;;;15.33;76.93;102604.94;4884905;29;20120;-51
2022/08/09 03:03:20;;;;;;;6.82;4.80;;;;;;;15.30;77.29;102605.16;4897736;29;20072;-48
2022/08/09 03:05:49;;;;;;;7.15;5.43;;;;;;;15.29;76.99;102611.47;4897204;29;20100;-51
2022/08/09 03:08:15;;;;;;;5.65;4.70;;;;;;;15.24;77.54;102613.63;4896317;29;20060;-47
2022/08/09 03:10:43;;;;;;;5.75;5.18;;;;;;;15.25;77.30;102607.28;4899825;29;20027;-50
2022/08/09 03:13:09;;;;;;;10.93;5.65;;;;;;;15.22;77.71;102610.19;4900589;29;20124;-51
2022/08/09 03:15:36;;;;;;;6.53;4.68;;;;;;;15.23;77.14;102603.00;4885706;29;20127;-52
2022/08/09 03:18:02;;;;;;;7.60;4.78;;;;;;;15.22;77.03;102607.53;4892313;29;20031;-51
2022/08/09 03:20:28;;;;;;;9.15;4.93;;;;;;;15.21;77.34;102612.97;4884484;29;20021;-49
2022/08/09 03:22:54;;;;;;;6.15;5.20;;;;;;;15.18;77.15;102603.31;4881780;29;20033;-50
2022/08/09 03:25:19;;;;;;;6.78;4.97;;;;;;;15.13;77.64;102605.47;4864724;29;20052;-46
2022/08/09 03:27:49;;;;;;;6.28;5.07;;;;;;;15.09;77.31;102606.63;4891658;29;20037;-51
2022/08/09 03:30:16;;;;;;;6.15;5.03;;;;;;;15.11;77.82;102602.88;4883239;29;20035;-50
2022/08/09 03:32:41;;;;;;;9.43;5.18;;;;;;;15.10;77.58;102603.84;4881521;29;20025;-48
2022/08/09 03:35:10;;;;;;;8.55;5.28;;;;;;;15.04;77.98;102606.94;4881338;29;20040;-52
2022/08/09 03:37:36;;;;;;;5.97;4.87;;;;;;;15.06;77.55;102609.53;4891769;29;20020;-50
2022/08/09 03:40:02;;;;;;;6.32;5.25;;;;;;;15.05;78.21;102613.16;4895452;29;20017;-47
2022/08/09 03:42:27;;;;;;;6.88;4.85;;;;;;;15.02;78.29;102614.22;4881531;29;20366;-51
2022/08/09 03:44:53;;;;;;;6.72;5.80;;;;;;;14.96;78.84;102609.28;4881187;29;20031;-50
2022/08/09 03:47:18;;;;;;;6.82;5.30;;;;;;;14.90;78.31;102607.00;4891604;29;20084;-51
2022/08/09 03:49:44;;;;;;;9.35;4.88;;;;;;;14.91;78.45;102614.94;4888368;29;20068;-50
2022/08/09 03:52:10;;;;;;;7.47;5.82;;;;;;;14.90;78.29;102615.88;4899598;29;20056;-50
2022/08/09 03:54:38;;;;;;;7.40;5.47;;;;;;;14.88;78.48;102609.78;4890821;29;20063;-51
2022/08/09 03:57:07;;;;;;;6.03;4.90;;;;;;;14.82;78.69;102614.69;4897707;29;20029;-50
2022/08/09 03:59:34;;;;;;;6.53;5.63;;;;;;;14.79;78.51;102619.28;4889593;29;20443;-48
2022/08/09 04:02:00;;;;;;;7.20;5.65;;;;;;;14.76;78.58;102611.47;4893059;29;20040;-50
2022/08/09 04:04:26;;;;;;;7.63;5.65;;;;;;;14.67;79.21;102616.56;4889231;29;20021;-50
2022/08/09 04:06:51;;;;;;;6.90;5.22;;;;;;;14.68;79.09;102610.25;4891009;29;20033;-49
2022/08/09 04:09:17;;;;;;;6.00;5.32;;;;;;;14.69;78.98;102614.63;4893611;29;20021;-47
2022/08/09 04:12:01;;;;;;;6.85;5.70;;;;;;;14.65;79.29;102608.63;4887666;29;20553;-51
2022/08/09 04:14:27;;;;;;;8.15;5.70;;;;;;;14.64;79.15;102612.28;4879928;29;20033;-49
2022/08/09 04:16:52;;;;;;;6.82;6.13;;;;;;;14.61;79.58;102605.31;4892485;29;20029;-48
2022/08/09 04:19:18;;;;;;;8.52;5.60;;;;;;;14.63;79.07;102609.69;4888466;29;20044;-50
2022/08/09 04:21:44;;;;;;;8.40;6.22;;;;;;;14.63;79.85;102602.53;4888589;29;20039;-48
2022/08/09 04:24:09;;;;;;;8.07;6.70;;;;;;;14.63;79.95;102610.56;4888381;29;20032;-49
2022/08/09 04:26:34;;;;;;;8.93;5.72;;;;;;;14.65;80.05;102616.66;4891546;29;20021;-48
2022/08/09 04:29:00;;;;;;;6.90;6.13;;;;;;;14.66;79.72;102617.53;4887600;29;20036;-51
2022/08/09 04:31:25;;;;;;;6.43;5.73;;;;;;;14.63;79.96;102625.75;4891826;29;20501;-51
2022/08/09 04:33:51;;;;;;;7.13;6.18;;;;;;;14.59;79.45;102628.63;4886387;29;20301;-50
2022/08/09 04:36:16;;;;;;;7.60;6.03;;;;;;;14.57;80.19;102632.31;4880547;29;20025;-51
2022/08/09 04:38:41;;;;;;;8.20;6.45;;;;;;;14.56;80.31;102631.47;4881267;29;20081;-49
2022/08/09 04:41:06;;;;;;;9.02;6.30;;;;;;;14.53;80.33;102628.13;4880712;29;20066;-49
2022/08/09 04:43:32;;;;;;;10.10;5.97;;;;;;;14.57;79.75;102633.19;4886829;29;20124;-50
2022/08/09 04:45:57;;;;;;;6.70;5.90;;;;;;;14.60;80.52;102635.69;4886461;29;20112;-50
2022/08/09 04:48:22;;;;;;;7.85;6.35;;;;;;;14.61;80.28;102639.22;4879863;29;20293;-48
2022/08/09 04:50:47;;;;;;;8.65;6.22;;;;;;;14.61;80.18;102636.53;4878744;29;20021;-50
2022/08/09 04:53:13;;;;;;;9.20;6.45;;;;;;;14.63;80.22;102634.63;4880180;29;20112;-48
2022/08/09 04:55:38;;;;;;;12.13;6.45;;;;;;;14.63;80.55;102633.78;4879620;29;20033;-46
2022/08/09 04:58:05;;;;;;;9.55;6.40;;;;;;;14.64;80.85;102643.50;4863094;29;20036;-52
2022/08/09 05:00:33;;;;;;;11.15;6.32;;;;;;;14.64;80.79;102646.16;4879844;29;20065;-48
2022/08/09 05:03:00;;;;;;;8.90;7.43;;;;;;;14.63;80.96;102642.66;4880367;29;20035;-49
2022/08/09 05:05:25;;;;;;;10.45;7.20;;;;;;;14.64;81.35;102638.13;4880679;29;20033;-47
2022/08/09 05:07:50;;;;;;;10.27;6.85;;;;;;;14.64;80.68;102655.06;4879997;29;20545;-48
2022/08/09 05:10:16;;;;;;;9.50;6.80;;;;;;;14.68;81.08;102656.56;4879707;29;20044;-49
2022/08/09 05:12:41;;;;;;;10.77;6.80;;;;;;;14.70;81.03;102654.66;4880506;29;20774;-47
2022/08/09 05:15:07;;;;;;;9.27;6.83;;;;;;;14.72;81.32;102655.44;4879880;29;20036;-48
2022/08/09 05:17:32;;;;;;;7.50;6.80;;;;;;;14.77;80.86;102655.97;4880901;29;20289;-50
2022/08/09 05:19:57;;;;;;;10.20;6.87;;;;;;;14.81;80.88;102653.97;4879667;29;20485;-48
2022/08/09 05:22:23;;;;;;;9.02;7.45;;;;;;;14.84;81.32;102656.44;4879919;29;20337;-47
2022/08/09 05:24:48;;;;;;;9.70;7.70;;;;;;;14.88;81.42;102652.59;4879631;29;20477;-50
2022/08/09 05:27:13;;;;;;;8.32;7.22;;;;;;;14.90;82.20;102655.16;4880741;29;20492;-49
2022/08/09 05:29:38;;;;;;;11.25;8.02;;;;;;;14.93;82.05;102655.81;4880287;29;20029;-48
2022/08/09 05:32:04;;;;;;;9.93;8.10;;;;;;;14.98;82.08;102652.84;4880976;29;20397;-47
2022/08/09 05:34:30;;;;;;;12.55;8.60;;;;;;;15.00;82.21;102650.91;4879796;29;20043;-47
2022/08/09 05:36:56;;;;;;;13.20;8.23;;;;;;;15.03;82.09;102644.50;4884835;29;20401;-47
2022/08/09 05:39:25;;;;;;;11.85;8.45;;;;;;;15.07;82.14;102646.88;4890450;29;20096;-47
2022/08/09 05:41:50;;;;;;;8.90;7.95;;;;;;;15.13;82.26;102654.47;4896971;29;20043;-47
2022/08/09 05:44:17;;;;;;;13.00;8.17;;;;;;;15.17;82.23;102658.69;4898049;29;20111;-47
2022/08/09 05:46:42;;;;;;;12.98;8.05;;;;;;;15.25;82.46;102663.50;4891491;29;20293;-49
2022/08/09 05:49:08;;;;;;;9.43;8.48;;;;;;;15.28;82.60;102657.94;4879807;29;20033;-50
2022/08/09 05:51:33;;;;;;;9.27;8.38;;;;;;;15.34;82.42;102670.91;4879198;29;20073;-52
2022/08/09 05:53:58;;;;;;;12.35;8.20;;;;;;;15.40;82.18;102661.59;4880340;29;20029;-47
2022/08/09 05:56:25;;;;;;;15.00;9.00;;;;;;;15.46;82.34;102665.69;4880372;29;20017;-46
2022/08/09 05:58:53;;;;;;;11.85;8.63;;;;;;;15.52;82.05;102667.94;4879758;29;20341;-48
2022/08/09 06:01:19;;;;;;;11.13;8.73;;;;;;;15.64;82.10;102669.78;4903017;29;20053;-49
2022/08/09 06:03:44;;;;;;;11.55;8.52;;;;;;;15.68;82.14;102670.44;4892407;29;20036;-52
2022/08/09 06:06:09;;;;;;;9.87;8.87;;;;;;;15.77;81.94;102674.31;4897785;29;20123;-49
2022/08/09 06:08:35;;;;;;;10.57;8.40;;;;;;;15.81;81.84;102667.78;4893442;29;20293;-51
2022/08/09 06:11:00;;;;;;;11.05;8.73;;;;;;;15.85;81.70;102674.63;4876256;29;20293;-49
2022/08/09 06:13:26;;;;;;;10.95;8.73;;;;;;;15.90;81.77;102677.84;4887552;29;20096;-50
2022/08/09 06:15:51;;;;;;;11.55;8.85;;;;;;;15.93;81.70;102683.00;4896784;29;20032;-49
2022/08/09 06:18:16;;;;;;;13.00;8.48;;;;;;;16.00;81.64;102680.75;4898129;29;20037;-46
2022/08/09 06:20:42;;;;;;;10.77;8.43;;;;;;;16.06;81.46;102678.50;4894376;29;20036;-46
2022/08/09 06:23:07;;;;;;;12.57;8.82;;;;;;;16.13;81.75;102691.47;4892305;29;20068;-45
2022/08/09 06:25:32;;;;;;;12.87;8.67;;;;;;;16.20;81.20;102690.06;4887422;29;20493;-47
2022/08/09 06:27:58;;;;;;;12.17;8.63;;;;;;;16.26;80.70;102684.28;4887990;29;20356;-48
2022/08/09 06:30:24;;;;;;;12.27;9.07;;;;;;;16.35;80.75;102690.78;4897131;29;20276;-45
2022/08/09 06:32:51;;;;;;;9.98;8.98;;;;;;;16.45;80.92;102687.34;4893966;29;20033;-46
2022/08/09 06:35:17;;;;;;;9.32;8.40;;;;;;;16.58;80.53;102687.28;4882308;29;20031;-46
2022/08/09 06:37:42;;;;;;;11.18;8.48;;;;;;;16.72;80.09;102688.09;4882169;29;20463;-47
2022/08/09 06:40:08;;;;;;;12.75;9.85;;;;;;;16.85;79.43;102693.47;4898661;29;20055;-46
2022/08/09 06:42:33;;;;;;;12.73;8.57;;;;;;;17.03;78.90;102692.09;4889934;29;20033;-48
2022/08/09 06:44:58;;;;;;;10.18;8.43;;;;;;;17.19;78.20;102689.97;4895018;29;20037;-47
2022/08/09 06:47:24;;;;;;;11.40;8.80;;;;;;;17.34;76.96;102687.09;4889481;29;20080;-46
2022/08/09 06:49:51;;;;;;;9.82;8.05;;;;;;;17.51;76.32;102683.97;4896959;29;20055;-45
2022/08/09 06:52:17;;;;;;;10.18;8.15;;;;;;;17.62;75.80;102687.66;4894571;29;20048;-46
2022/08/09 06:54:42;;;;;;;11.18;8.15;;;;;;;17.81;75.31;102690.63;4896942;29;20085;-47
2022/08/09 06:57:08;;;;;;;10.98;9.27;;;;;;;17.91;75.29;102694.34;4897538;29;20035;-48
2022/08/09 06:59:33;;;;;;;11.25;8.70;;;;;;;18.09;74.63;102689.34;4891289;29;20021;-46
2022/08/09 07:01:59;;;;;;;11.27;8.80;;;;;;;18.23;74.36;102690.91;4892352;29;20072;-49
2022/08/09 07:04:24;;;;;;;18.17;7.90;;;;;;;18.44;74.70;102696.41;4891940;29;20027;-49
2022/08/09 07:06:49;;;;;;;13.02;7.72;;;;;;;18.54;72.78;102696.53;4891751;29;20097;-47
2022/08/09 07:09:15;;;;;;;13.85;8.50;;;;;;;18.85;72.29;102697.59;4890921;29;20112;-47
2022/08/09 07:11:40;;;;;;;9.32;8.15;;;;;;;19.02;71.16;102704.28;4890213;29;20081;-48
2022/08/09 07:14:05;;;;;;;10.73;8.40;;;;;;;19.16;70.29;102696.88;4891559;29;20029;-47
2022/08/09 07:16:31;;;;;;;9.07;7.97;;;;;;;19.40;69.82;102702.03;4893898;29;20409;-48
2022/08/09 07:18:56;;;;;;;12.02;7.60;;;;;;;19.55;68.76;102706.13;4901162;29;20277;-49
2022/08/09 07:21:21;;;;;;;10.55;7.40;;;;;;;19.79;67.69;102696.94;4897616;29;20033;-46
2022/08/09 07:23:47;;;;;;;9.25;7.57;;;;;;;20.10;66.92;102700.50;4896614;29;20033;-46
2022/08/09 07:26:12;;;;;;;11.57;7.55;;;;;;;20.26;65.77;102700.00;4902652;29;20096;-48
2022/08/09 07:28:37;;;;;;;10.83;7.43;;;;;;;20.60;65.18;102688.00;4901890;29;20068;-49
2022/08/09 07:31:03;;;;;;;10.88;7.72;;;;;;;20.72;63.61;102703.16;4893263;29;20305;-48
2022/08/09 07:33:29;;;;;;;9.80;7.80;;;;;;;20.93;63.48;102700.31;4899922;29;20025;-46
2022/08/09 07:35:55;;;;;;;8.27;7.13;;;;;;;21.17;62.58;102699.09;4887818;29;20037;-48
2022/08/09 07:38:21;;;;;;;8.77;7.10;;;;;;;21.53;62.13;102716.44;4887702;29;20036;-49
2022/08/09 07:40:46;;;;;;;12.07;7.13;;;;;;;21.77;61.24;102704.31;4889624;29;20285;-47
2022/08/09 07:43:11;;;;;;;8.53;6.70;;;;;;;22.06;59.75;102695.22;4887032;29;20136;-46
2022/08/09 07:45:36;;;;;;;10.63;6.70;;;;;;;22.26;59.21;102704.97;4887295;29;20290;-47
2022/08/09 07:48:03;;;;;;;6.90;5.97;;;;;;;22.48;58.56;102702.88;4885373;29;20341;-47
2022/08/09 07:50:28;;;;;;;8.55;6.32;;;;;;;22.73;57.66;102696.75;4883732;29;20301;-48
2022/08/09 07:52:54;;;;;;;10.73;6.97;;;;;;;22.93;57.20;102699.31;4884311;29;20121;-48
2022/08/09 07:55:20;;;;;;;13.70;6.88;;;;;;;23.13;55.66;102699.19;4883556;29;20028;-48
2022/08/09 07:57:47;;;;;;;9.02;6.72;;;;;;;23.38;54.80;102708.38;4883805;29;20036;-48
2022/08/09 08:00:14;;;;;;;11.07;6.38;;;;;;;23.55;55.01;102699.38;4902890;29;20035;-47
2022/08/09 08:02:40;;;;;;;7.63;5.82;;;;;;;23.80;54.46;102703.13;4903167;29;20036;-47
2022/08/09 08:05:05;;;;;;;8.48;6.18;;;;;;;23.86;53.93;102703.50;4898735;29;20028;-47
2022/08/09 08:07:31;;;;;;;8.45;5.90;;;;;;;24.00;53.30;102705.63;4902608;29;20089;-47
2022/08/09 08:09:56;;;;;;;6.80;6.00;;;;;;;24.18;52.90;102709.13;4902727;29;20164;-46
2022/08/09 08:12:21;;;;;;;8.37;5.70;;;;;;;24.38;52.58;102708.84;4901548;29;20043;-48
2022/08/09 08:14:47;;;;;;;8.32;6.13;;;;;;;24.69;52.58;102706.44;4883023;29;20653;-47
2022/08/09 08:17:12;;;;;;;9.30;5.80;;;;;;;24.67;50.83;102705.75;4899602;29;20393;-49
2022/08/09 08:19:38;;;;;;;6.60;5.38;;;;;;;24.84;51.48;102701.19;4902429;29;20281;-47
2022/08/09 08:22:03;;;;;;;6.82;5.90;;;;;;;24.96;50.67;102699.00;4900703;29;20025;-47
2022/08/09 08:24:29;;;;;;;9.85;5.35;;;;;;;25.10;49.49;102711.94;4890070;29;20040;-48
2022/08/09 08:26:54;;;;;;;10.40;5.20;;;;;;;25.42;49.71;102701.28;4903039;29;20495;-47
2022/08/09 08:29:19;;;;;;;7.25;4.93;;;;;;;25.41;48.03;102700.41;4901998;29;20048;-47
2022/08/09 08:31:45;;;;;;;7.38;5.07;;;;;;;25.68;48.29;102703.81;4900649;29;20056;-47
2022/08/09 08:34:10;;;;;;;7.38;5.05;;;;;;;25.82;47.60;102707.69;4894190;29;20047;-48
2022/08/09 08:36:36;;;;;;;5.85;4.43;;;;;;;26.18;46.80;102702.66;4899252;29;20028;-47
2022/08/09 08:39:02;;;;;;;9.23;5.23;;;;;;;26.30;46.09;102703.13;4899759;29;20401;-48
2022/08/09 08:41:29;;;;;;;7.55;5.18;;;;;;;26.27;46.05;102697.19;4886218;29;20312;-47
2022/08/09 08:43:54;;;;;;;7.38;4.80;;;;;;;26.57;46.05;102698.22;4903577;29;20056;-49
2022/08/09 08:46:24;;;;;;;6.22;4.65;;;;;;;26.77;45.40;102699.47;4902428;29;20056;-48
2022/08/09 08:48:50;;;;;;;6.53;4.97;;;;;;;26.80;44.99;102698.28;4893641;29;20039;-48
2022/08/09 08:51:16;;;;;;;8.13;4.70;;;;;;;26.93;45.53;102692.25;4898978;29;20080;-47
2022/08/09 08:53:42;;;;;;;5.00;3.28;;;;;;;26.98;42.54;102692.53;4892301;29;20111;-49
2022/08/09 08:56:07;;;;;;;6.43;3.35;;;;;;;27.02;41.22;102695.75;4898809;29;20067;-49
2022/08/09 08:58:34;;;;;;;4.32;2.90;;;;;;;27.26;41.78;102697.41;4883844;29;20049;-50
2022/08/09 09:01:02;;;;;;;7.10;3.20;;;;;;;27.40;41.52;102696.66;4898424;29;20066;-49
2022/08/09 09:03:32;;;;;;;7.40;3.77;;;;;;;27.43;41.33;102701.72;4892109;29;20036;-50
2022/08/09 09:05:58;;;;;;;6.15;3.00;;;;;;;27.62;41.38;102714.00;4896468;29;20413;-50
2022/08/09 09:08:26;;;;;;;5.65;3.28;;;;;;;27.70;41.37;102713.06;4888250;29;20032;-51
2022/08/09 09:10:52;;;;;;;6.03;3.85;;;;;;;27.80;40.62;102713.63;4894476;29;20033;-51
2022/08/09 09:13:18;;;;;;;6.07;3.20;;;;;;;27.85;40.82;102716.66;4890477;29;20085;-48
2022/08/09 09:15:44;;;;;;;6.53;3.80;;;;;;;28.08;40.39;102713.03;4889550;29;20033;-50
2022/08/09 09:18:14;;;;;;;6.00;2.65;;;;;;;28.33;39.61;102712.69;4891610;29;20041;-50
2022/08/09 09:20:42;;;;;;;4.78;2.88;;;;;;;28.42;38.94;102722.50;4888497;29;20025;-50
2022/08/09 09:23:07;;;;;;;9.30;2.83;;;;;;;28.53;39.00;102722.00;4892787;29;20033;-52
2022/08/09 09:25:36;;;;;;;8.00;2.42;;;;;;;28.51;37.89;102718.63;4887657;29;20108;-52
2022/08/09 09:28:04;;;;;;;3.95;1.95;;;;;;;28.56;37.16;102721.66;4892636;29;20029;-51
2022/08/09 09:30:29;;;;;;;3.30;1.65;;;;;;;28.92;37.15;102719.94;4887481;29;20033;-50
2022/08/09 09:33:02;;;;;;;4.50;1.75;;;;;;;29.15;37.94;102725.22;4881289;29;20092;-50
2022/08/09 09:35:27;;;;;;;3.20;1.98;;;;;;;29.06;36.34;102716.31;4880019;29;20044;-52
2022/08/09 09:37:53;;;;;;;2.33;1.63;;;;;;;29.30;36.05;102714.22;4879599;29;20029;-49
2022/08/09 09:40:18;;;;;;;4.45;1.95;;;;;;;29.25;36.45;102711.25;4878527;29;20069;-49
2022/08/09 09:42:54;;;;;;;4.63;2.37;;;;;;;29.36;37.07;102709.84;4878226;29;20035;-51
2022/08/09 09:45:19;;;;;;;4.35;1.75;;;;;;;29.44;34.73;102712.44;4880175;29;20297;-52
2022/08/09 09:47:45;;;;;;;5.38;1.50;;;;;;;29.58;35.39;102703.28;4863253;29;20028;-50
2022/08/09 09:50:10;;;;;;;2.30;1.55;;;;;;;29.76;34.36;102704.66;4879876;29;20031;-53
2022/08/09 09:52:48;;;;;;;7.60;2.00;;;;;;;29.69;35.91;102708.22;4878653;29;20057;-48
2022/08/09 09:55:14;;;;;;;2.75;1.40;;;;;;;29.83;35.26;102697.38;4863659;29;20104;-50
2022/08/09 09:57:39;;;;;;;7.05;1.90;;;;;;;29.75;35.00;102709.28;4880461;29;20077;-51
2022/08/09 10:00:21;;;;;;;6.72;1.50;;;;;;;30.05;35.92;102703.59;4881724;29;20036;-48
2022/08/09 10:02:46;;;;;;;5.57;1.45;;;;;;;29.81;34.19;102703.06;4880391;29;20408;-50
2022/08/09 10:05:11;;;;;;;6.63;1.50;;;;;;;30.03;33.10;102705.72;4878987;29;20111;-50
2022/08/09 10:07:37;;;;;;;2.67;1.23;;;;;;;30.20;34.00;102707.03;4880799;29;20033;-51
2022/08/09 10:10:04;;;;;;;4.20;1.23;;;;;;;30.27;32.22;102710.66;4880904;29;20124;-48
2022/08/09 10:12:31;;;;;;;2.08;1.25;;;;;;;30.50;31.60;102698.53;4881286;29;20289;-50
2022/08/09 10:15:14;;;;;;;3.50;1.15;;;;;;;30.44;32.21;102707.59;4879482;29;20037;-50
2022/08/09 10:17:42;;;;;;;3.40;0.98;;;;;;;30.46;31.01;102713.72;4880810;29;20115;-50
2022/08/09 10:20:16;;;;;;;1.50;1.00;;;;;;;30.51;31.88;102705.72;4880066;29;20041;-48
2022/08/09 10:22:42;;;;;;;2.05;0.80;;;;;;;30.60;31.38;102695.41;4883037;29;20029;-49
2022/08/09 10:25:08;;;;;;;2.38;1.00;;;;;;;30.79;31.25;102694.63;4881835;29;20044;-50
2022/08/09 10:27:35;;;;;;;3.08;1.08;;;;;;;30.63;31.05;102695.84;4881481;29;20033;-49
2022/08/09 10:30:05;;;;;;;4.32;1.10;;;;;;;31.08;31.74;102689.81;4881051;29;20037;-52
2022/08/09 10:32:32;;;;;;;3.88;1.33;;;;;;;31.35;30.52;102689.81;4882216;29;20029;-48
2022/08/09 10:34:58;;;;;;;4.75;0.98;;;;;;;31.32;29.71;102688.31;4900524;29;20036;-48
2022/08/09 10:37:23;;;;;;;3.72;0.95;;;;;;;31.04;29.72;102690.44;4904908;29;20076;-48
2022/08/09 10:39:50;;;;;;;3.50;1.10;;;;;;;31.10;29.21;102684.97;4884287;29;20045;-51
2022/08/09 10:42:15;;;;;;;3.67;0.70;;;;;;;31.21;29.17;102679.88;4895626;29;20048;-47
2022/08/09 10:44:44;;;;;;;5.72;1.27;;;;;;;31.10;29.99;102684.97;4890136;29;20033;-49
2022/08/09 10:47:28;;;;;;;1.13;0.65;;;;;;;31.39;30.63;102676.50;4891392;29;20045;-47
2022/08/09 10:49:58;;;;;;;2.30;0.77;;;;;;;31.32;28.91;102682.00;4891001;29;20037;-49
2022/08/09 10:52:45;;;;;;;4.47;1.10;;;;;;;31.42;29.40;102676.91;4891218;29;20049;-50
2022/08/09 10:55:27;;;;;;;2.60;0.88;;;;;;;31.61;30.59;102667.00;4889773;29;20033;-48
2022/08/09 10:57:54;;;;;;;3.20;0.85;;;;;;;31.56;28.53;102672.28;4885684;29;20025;-48
2022/08/09 11:00:32;;;;;;;1.35;0.70;;;;;;;31.79;29.67;102666.28;4886346;29;20485;-50
2022/08/09 11:02:58;;;;;;;1.83;0.60;;;;;;;32.04;28.38;102671.94;4886055;29;20029;-48
2022/08/09 11:05:26;;;;;;;1.98;0.73;;;;;;;32.24;27.66;102669.13;4887735;29;20040;-47
2022/08/09 11:07:51;;;;;;;3.13;0.80;;;;;;;32.28;27.34;102664.03;4886451;29;20047;-47
2022/08/09 11:10:41;;;;;;;2.45;0.82;;;;;;;32.30;28.46;102672.06;4892200;29;20036;-49
2022/08/09 11:13:18;;;;;;;1.73;0.80;;;;;;;32.03;28.07;102664.75;4894897;29;20036;-48
2022/08/09 11:15:43;;;;;;;4.47;0.80;;;;;;;32.04;26.82;102671.06;4887612;29;20399;-49
2022/08/09 11:18:11;;;;;;;3.70;1.10;;;;;;;32.01;26.76;102671.50;4899159;29;20092;-50
2022/08/09 11:20:48;;;;;;;3.97;0.90;;;;;;;32.01;28.04;102671.50;4888813;29;20564;-47
2022/08/09 11:23:14;;;;;;;1.85;0.60;;;;;;;32.08;28.55;102669.63;4891738;29;20036;-49
2022/08/09 11:25:43;;;;;;;2.10;0.70;;;;;;;32.07;26.73;102662.44;4890097;29;20029;-51